Time;durP1;ratioP1;P1;durP2;ratioP2;P2;SDS_P1;SDS_P2;PMS_P1;PMS_P2;Temp;Humidity;BMP_temperature;BMP_pressure;BME280_temperature;BME280_humidity;BME280_pressure;Samples;Min_cycle;Max_cycle;Signal;HPM_P1;HPM_P2
2023/08/15 00:00:30;;;;;;;11.05;4.95;;;;;;;24.04;42.73;94862.47;4171377;28;20060;-82
2023/08/15 00:02:32;;;;;;;5.85;4.50;;;;;;;24.03;42.59;94864.34;4170999;28;20500;-78
2023/08/15 00:04:35;;;;;;;7.97;5.10;;;;;;;23.90;42.67;94867.31;4181874;28;20088;-78
2023/08/15 00:06:37;;;;;;;6.78;4.63;;;;;;;23.88;42.69;94858.72;4163403;28;20045;-82
2023/08/15 00:08:39;;;;;;;8.48;4.70;;;;;;;23.91;42.57;94867.06;4173097;28;20077;-80
2023/08/15 00:10:41;;;;;;;5.53;4.38;;;;;;;23.96;42.33;94860.19;4169653;28;20057;-81
2023/08/15 00:12:44;;;;;;;9.70;4.93;;;;;;;23.92;42.57;94863.34;4172485;28;21500;-78
2023/08/15 00:14:46;;;;;;;7.00;4.53;;;;;;;23.94;42.50;94855.09;4163391;28;20059;-78
2023/08/15 00:16:48;;;;;;;10.98;5.00;;;;;;;24.00;41.99;94853.31;4168984;28;20081;-78
2023/08/15 00:18:50;;;;;;;9.10;5.32;;;;;;;24.02;42.18;94859.22;4174671;28;20126;-80
2023/08/15 00:20:51;;;;;;;7.82;4.78;;;;;;;24.02;42.02;94865.38;4175338;28;20059;-77
2023/08/15 00:22:53;;;;;;;6.63;4.82;;;;;;;23.96;42.04;94849.47;4170143;28;20087;-79
2023/08/15 00:24:56;;;;;;;7.38;4.78;;;;;;;23.91;42.25;94847.53;4166667;28;20053;-79
2023/08/15 00:26:58;;;;;;;8.98;4.85;;;;;;;23.92;42.10;94852.66;4174502;28;20125;-81
2023/08/15 00:29:00;;;;;;;8.57;4.78;;;;;;;23.92;42.04;94847.28;4188409;28;20060;-79
2023/08/15 00:31:02;;;;;;;8.57;4.97;;;;;;;23.81;42.28;94852.66;4161075;28;20060;-80
2023/08/15 00:33:04;;;;;;;6.18;4.40;;;;;;;23.70;42.53;94849.78;4168477;28;20106;-80
2023/08/15 00:35:07;;;;;;;6.60;4.72;;;;;;;23.71;42.44;94843.38;4175726;28;20122;-80
2023/08/15 00:37:08;;;;;;;7.07;4.60;;;;;;;23.58;42.60;94835.63;4169193;28;20087;-78
2023/08/15 00:39:10;;;;;;;6.88;5.00;;;;;;;23.49;42.81;94829.03;4162645;28;20045;-79
2023/08/15 00:41:12;;;;;;;9.50;4.72;;;;;;;23.36;42.87;94826.59;4176419;28;20048;-79
2023/08/15 00:43:17;;;;;;;8.63;4.57;;;;;;;23.39;42.86;94826.16;4166353;28;20049;-80
2023/08/15 00:45:19;;;;;;;8.00;5.10;;;;;;;23.43;43.16;94821.94;4167236;28;20049;-78
2023/08/15 00:47:21;;;;;;;7.75;4.85;;;;;;;23.44;42.98;94823.56;4178212;28;20036;-79
2023/08/15 00:49:23;;;;;;;9.95;4.53;;;;;;;23.41;43.16;94816.84;4184136;28;20060;-79
2023/08/15 00:51:26;;;;;;;9.82;5.35;;;;;;;23.40;42.80;94825.09;4173797;28;20049;-78
2023/08/15 00:53:29;;;;;;;6.87;4.80;;;;;;;23.35;43.22;94827.66;4175593;28;20049;-80
2023/08/15 00:55:32;;;;;;;7.43;4.55;;;;;;;23.36;43.25;94822.09;4176346;28;20278;-79
2023/08/15 00:57:34;;;;;;;8.15;4.95;;;;;;;23.36;43.15;94826.59;4173661;28;20045;-79
2023/08/15 00:59:36;;;;;;;6.43;4.97;;;;;;;23.19;43.55;94819.31;4158358;28;20053;-79
2023/08/15 01:01:38;;;;;;;9.10;5.03;;;;;;;23.07;43.89;94818.50;4176073;28;20036;-80
2023/08/15 01:03:41;;;;;;;8.32;5.13;;;;;;;23.05;43.65;94816.06;4170700;28;20049;-79
2023/08/15 01:05:44;;;;;;;5.67;4.90;;;;;;;23.10;44.02;94810.03;4167361;28;20075;-78
2023/08/15 01:07:45;;;;;;;9.02;5.30;;;;;;;23.13;43.75;94811.44;4177064;28;20501;-79
2023/08/15 01:09:47;;;;;;;7.40;4.60;;;;;;;23.13;43.64;94806.91;4164704;28;20338;-79
2023/08/15 01:12:26;;;;;;;5.70;4.90;;;;;;;23.08;44.06;94802.25;4161335;28;20414;-78
2023/08/15 01:14:35;;;;;;;8.32;5.00;;;;;;;23.04;44.08;94795.75;4165261;28;20041;-79
2023/08/15 01:16:40;;;;;;;7.65;5.10;;;;;;;23.01;44.17;94798.06;4170568;28;20726;-79
2023/08/15 01:18:45;;;;;;;7.55;4.82;;;;;;;22.96;44.13;94790.72;4162492;28;20510;-79
2023/08/15 01:20:48;;;;;;;8.48;5.28;;;;;;;22.81;44.60;94787.72;4163716;28;20418;-82
2023/08/15 01:22:52;;;;;;;7.10;4.85;;;;;;;22.81;44.97;94788.53;4163039;28;20164;-78
2023/08/15 01:24:55;;;;;;;7.82;4.78;;;;;;;22.85;44.71;94788.88;4173025;28;20087;-80
2023/08/15 01:26:56;;;;;;;5.28;4.30;;;;;;;22.89;44.62;94784.72;4165108;28;20107;-79
2023/08/15 01:28:58;;;;;;;6.72;5.13;;;;;;;22.97;44.66;94787.00;4163768;28;20116;-79
2023/08/15 01:31:27;;;;;;;10.80;5.20;;;;;;;23.10;44.42;94791.31;4169686;28;20481;-78
2023/08/15 01:34:01;;;;;;;9.23;5.50;;;;;;;23.16;44.38;94784.22;4164097;28;20149;-80
2023/08/15 01:36:14;;;;;;;8.43;5.05;;;;;;;23.26;44.35;94785.25;4160232;28;20453;-80
2023/08/15 01:38:34;;;;;;;9.52;4.90;;;;;;;23.35;44.11;94791.03;4170167;28;20045;-78
2023/08/15 01:40:37;;;;;;;9.23;5.18;;;;;;;23.35;43.68;94783.03;4183877;28;20448;-78
2023/08/15 01:42:40;;;;;;;17.27;4.82;;;;;;;23.29;43.92;94781.28;4175147;28;20140;-79
2023/08/15 01:44:42;;;;;;;7.90;4.65;;;;;;;23.30;44.03;94788.28;4172000;28;20064;-79
2023/08/15 01:46:46;;;;;;;5.93;4.82;;;;;;;23.28;44.51;94785.03;4172472;28;20104;-78
2023/08/15 01:48:48;;;;;;;9.40;5.00;;;;;;;23.30;44.20;94785.59;4169505;28;20041;-78
2023/08/15 01:50:51;;;;;;;7.00;4.30;;;;;;;23.29;44.08;94779.44;4174438;28;20059;-80
2023/08/15 01:52:56;;;;;;;8.02;4.80;;;;;;;23.23;44.28;94780.41;4166251;28;20405;-79
2023/08/15 01:54:58;;;;;;;9.43;5.38;;;;;;;23.20;44.37;94780.84;4172178;28;20045;-77
2023/08/15 01:57:00;;;;;;;6.25;4.63;;;;;;;23.16;44.08;94777.03;4173612;28;20061;-79
2023/08/15 01:59:02;;;;;;;9.07;4.90;;;;;;;23.16;44.13;94778.88;4177213;28;20223;-80
2023/08/15 02:01:04;;;;;;;8.40;5.22;;;;;;;23.03;44.15;94779.94;4176015;28;20136;-78
2023/08/15 02:03:06;;;;;;;9.52;4.95;;;;;;;23.03;44.78;94777.28;4177051;28;20064;-78
2023/08/15 02:05:08;;;;;;;6.70;4.75;;;;;;;22.89;44.81;94776.69;4168580;28;20045;-77
2023/08/15 02:07:10;;;;;;;8.80;5.13;;;;;;;22.94;45.00;94781.34;4174974;28;20380;-77
2023/08/15 02:09:12;;;;;;;6.97;4.80;;;;;;;23.00;44.93;94778.56;4178508;28;20118;-78
2023/08/15 02:11:14;;;;;;;7.63;4.80;;;;;;;23.08;44.37;94774.69;4179298;28;20208;-78
2023/08/15 02:13:16;;;;;;;7.20;4.70;;;;;;;23.12;44.34;94775.88;4167406;28;20041;-78
2023/08/15 02:15:20;;;;;;;6.63;4.70;;;;;;;23.10;44.48;94775.28;4166361;28;20049;-78
2023/08/15 02:17:24;;;;;;;8.57;4.93;;;;;;;23.07;44.55;94775.78;4172311;28;20033;-78
2023/08/15 02:19:26;;;;;;;6.70;4.88;;;;;;;22.99;44.53;94784.91;4186896;28;20084;-78
2023/08/15 02:21:28;;;;;;;9.10;4.37;;;;;;;22.78;44.97;94783.69;4190530;28;20103;-77
2023/08/15 02:23:30;;;;;;;7.15;5.18;;;;;;;22.72;45.08;94781.94;4185982;28;20029;-78
2023/08/15 02:25:32;;;;;;;7.53;5.43;;;;;;;22.76;45.14;94774.25;4186487;28;20068;-77
2023/08/15 02:27:34;;;;;;;8.38;4.85;;;;;;;22.82;44.91;94782.16;4194073;28;20060;-78
2023/08/15 02:29:36;;;;;;;6.80;4.88;;;;;;;22.83;44.53;94775.75;4180237;28;20079;-77
2023/08/15 02:31:43;;;;;;;7.05;4.60;;;;;;;22.83;44.26;94781.09;4183872;28;20053;-78
2023/08/15 02:33:45;;;;;;;8.40;4.60;;;;;;;22.86;44.80;94783.28;4186139;28;20095;-78
2023/08/15 02:35:49;;;;;;;10.75;5.30;;;;;;;22.96;45.20;94774.72;4182127;28;20048;-76
2023/08/15 02:37:51;;;;;;;8.32;4.88;;;;;;;23.07;44.93;94781.09;4186442;28;20045;-78
2023/08/15 02:39:53;;;;;;;7.70;5.18;;;;;;;23.12;44.97;94780.41;4170360;28;20157;-78
2023/08/15 02:41:55;;;;;;;9.27;5.45;;;;;;;23.17;45.38;94783.19;4181394;28;20618;-80
2023/08/15 02:43:57;;;;;;;10.60;5.40;;;;;;;23.20;44.81;94775.50;4184547;28;20110;-78
2023/08/15 02:45:59;;;;;;;8.75;5.20;;;;;;;23.21;44.60;94776.31;4179166;28;20091;-78
2023/08/15 02:48:01;;;;;;;8.57;5.28;;;;;;;23.22;44.54;94778.75;4171939;28;20152;-79
2023/08/15 02:50:03;;;;;;;7.40;4.90;;;;;;;23.23;44.91;94774.22;4173416;28;20548;-77
2023/08/15 02:52:06;;;;;;;11.93;5.30;;;;;;;23.25;45.08;94777.47;4171577;28;20141;-79
2023/08/15 02:54:07;;;;;;;10.40;4.82;;;;;;;23.27;44.85;94776.19;4175509;28;20069;-81
2023/08/15 02:56:10;;;;;;;7.43;4.93;;;;;;;23.25;45.32;94778.31;4175752;28;20365;-79
2023/08/15 02:58:11;;;;;;;7.97;5.28;;;;;;;23.28;45.37;94777.81;4171733;28;20064;-78
2023/08/15 03:00:14;;;;;;;8.13;4.75;;;;;;;23.21;44.84;94778.97;4178688;28;20049;-77
2023/08/15 03:02:16;;;;;;;10.82;5.70;;;;;;;23.19;45.22;94779.25;4186849;28;20103;-81
2023/08/15 03:04:18;;;;;;;8.55;4.97;;;;;;;23.16;45.30;94777.03;4168635;28;20049;-78
2023/08/15 03:06:20;;;;;;;7.00;4.60;;;;;;;23.02;45.04;94773.00;4165923;28;20075;-81
2023/08/15 03:08:22;;;;;;;6.65;4.72;;;;;;;22.92;45.20;94775.41;4171235;28;20045;-77
2023/08/15 03:10:26;;;;;;;7.80;4.82;;;;;;;22.84;45.54;94779.25;4170580;28;20049;-78
2023/08/15 03:12:29;;;;;;;6.38;4.72;;;;;;;22.79;45.44;94776.47;4165036;28;20099;-77
2023/08/15 03:14:31;;;;;;;8.15;5.10;;;;;;;22.75;45.59;94781.44;4164529;28;20129;-76
2023/08/15 03:16:33;;;;;;;7.38;5.00;;;;;;;22.69;45.80;94783.22;4164708;28;20053;-79
2023/08/15 03:18:35;;;;;;;9.45;4.97;;;;;;;22.69;45.88;94785.03;4164735;28;20479;-77
2023/08/15 03:20:36;;;;;;;8.73;4.90;;;;;;;22.65;45.87;94789.22;4167160;28;20049;-80
2023/08/15 03:22:41;;;;;;;10.20;4.72;;;;;;;22.65;45.76;94794.56;4180856;28;20049;-78
2023/08/15 03:24:43;;;;;;;8.55;5.18;;;;;;;22.61;45.80;94801.44;4164609;28;20453;-77
2023/08/15 03:26:45;;;;;;;9.85;5.07;;;;;;;22.63;46.07;94794.00;4176054;28;20081;-78
2023/08/15 03:28:47;;;;;;;9.57;5.05;;;;;;;22.66;45.31;94798.88;4177955;28;20055;-80
2023/08/15 03:30:49;;;;;;;11.23;5.45;;;;;;;22.64;45.97;94791.09;4180492;28;20060;-77
2023/08/15 03:32:53;;;;;;;9.65;4.95;;;;;;;22.60;45.92;94771.22;4186238;28;20072;-78
2023/08/15 03:34:55;;;;;;;6.95;5.05;;;;;;;22.65;45.88;94773.19;4179476;28;20395;-78
2023/08/15 03:36:57;;;;;;;8.50;5.72;;;;;;;22.68;45.77;94783.44;4165840;28;20377;-78
2023/08/15 03:38:59;;;;;;;6.80;4.50;;;;;;;22.70;46.24;94794.69;4179335;28;20110;-80
2023/08/15 03:41:04;;;;;;;13.13;5.25;;;;;;;22.75;46.47;94792.13;4168215;28;20384;-79
2023/08/15 03:43:06;;;;;;;8.77;5.00;;;;;;;22.80;46.10;94791.44;4168176;28;20151;-79
2023/08/15 03:45:09;;;;;;;6.65;5.00;;;;;;;22.84;46.04;94788.09;4175533;28;20713;-77
2023/08/15 03:47:11;;;;;;;9.82;5.15;;;;;;;22.86;45.84;94785.16;4165376;28;20235;-79
2023/08/15 03:49:13;;;;;;;10.13;5.13;;;;;;;22.92;46.14;94789.56;4173116;28;20079;-81
2023/08/15 03:51:15;;;;;;;7.25;4.47;;;;;;;22.97;46.07;94791.53;4169210;28;20056;-78
2023/08/15 03:53:37;;;;;;;9.27;5.05;;;;;;;22.99;45.67;94790.25;4176175;28;20075;-76
2023/08/15 03:55:39;;;;;;;6.38;5.38;;;;;;;22.99;45.65;94790.25;4152846;28;20128;-79
2023/08/15 03:57:41;;;;;;;10.68;5.93;;;;;;;23.03;45.75;94788.78;4168375;28;20045;-77
2023/08/15 03:59:44;;;;;;;11.73;7.65;;;;;;;23.09;45.52;94793.19;4175796;28;20116;-78
2023/08/15 04:01:48;;;;;;;12.68;7.97;;;;;;;23.08;45.67;94794.25;4164572;28;20050;-79
2023/08/15 04:03:51;;;;;;;18.23;15.07;;;;;;;23.09;45.60;94798.53;4162772;28;20660;-77
2023/08/15 04:05:53;;;;;;;17.92;16.00;;;;;;;23.12;45.92;94794.56;4176565;28;20060;-79
2023/08/15 04:07:56;;;;;;;14.95;9.55;;;;;;;23.14;46.01;94795.16;4179174;28;20064;-79
2023/08/15 04:09:58;;;;;;;9.50;7.40;;;;;;;23.15;45.42;94793.31;4178104;28;20081;-78
2023/08/15 04:12:00;;;;;;;14.18;6.85;;;;;;;23.17;45.56;94801.91;4166088;28;20136;-79
2023/08/15 04:14:02;;;;;;;15.52;11.02;;;;;;;23.15;45.54;94799.47;4166847;28;20133;-77
2023/08/15 04:16:04;;;;;;;11.65;6.47;;;;;;;23.18;45.36;94801.66;4168670;28;20378;-78
2023/08/15 04:18:09;;;;;;;21.13;18.63;;;;;;;23.18;45.72;94801.66;4178404;28;20065;-79
2023/08/15 04:20:12;;;;;;;18.33;9.40;;;;;;;23.21;45.69;94809.22;4175855;28;20095;-79
2023/08/15 04:22:14;;;;;;;11.65;8.40;;;;;;;23.23;45.61;94795.59;4164316;28;20053;-79
2023/08/15 04:24:15;;;;;;;10.73;5.30;;;;;;;23.27;45.50;94794.91;4163734;28;20173;-79
2023/08/15 04:26:17;;;;;;;11.02;5.82;;;;;;;23.28;45.12;94795.72;4173613;28;20532;-79
2023/08/15 04:28:19;;;;;;;8.77;5.07;;;;;;;23.29;45.59;94798.13;4169829;28;20136;-79
2023/08/15 04:30:21;;;;;;;7.10;5.35;;;;;;;23.30;45.28;94807.00;4163461;28;20045;-79
2023/08/15 04:32:23;;;;;;;6.82;5.20;;;;;;;23.34;45.68;94807.31;4177630;28;20124;-81
2023/08/15 04:34:25;;;;;;;9.88;5.13;;;;;;;23.35;45.88;94795.59;4178987;28;20052;-81
2023/08/15 04:36:27;;;;;;;8.70;5.20;;;;;;;23.35;46.33;94801.72;4168286;28;20071;-80
2023/08/15 04:38:29;;;;;;;7.78;4.95;;;;;;;23.38;46.08;94816.47;4163928;28;20049;-81
2023/08/15 04:40:32;;;;;;;8.55;5.13;;;;;;;23.36;45.55;94810.56;4173124;28;20045;-79
2023/08/15 04:42:33;;;;;;;7.43;5.20;;;;;;;23.36;45.87;94808.72;4174265;28;21406;-78
2023/08/15 04:44:35;;;;;;;13.93;5.70;;;;;;;23.40;45.84;94819.72;4167571;28;20107;-79
2023/08/15 04:46:37;;;;;;;11.82;6.03;;;;;;;23.39;45.78;94831.50;4172728;28;20049;-78
2023/08/15 04:48:38;;;;;;;8.80;5.65;;;;;;;23.37;45.95;94828.25;4175384;28;20078;-78
2023/08/15 04:50:41;;;;;;;10.30;5.28;;;;;;;23.43;46.24;94830.78;4177495;28;20053;-78
2023/08/15 04:52:43;;;;;;;6.95;5.25;;;;;;;23.43;46.24;94828.09;4168920;28;20620;-79
2023/08/15 04:54:45;;;;;;;11.10;5.20;;;;;;;23.46;45.97;94824.13;4176792;28;20048;-80
2023/08/15 04:56:49;;;;;;;11.65;5.93;;;;;;;23.48;45.99;94835.41;4173517;28;20057;-81
2023/08/15 04:58:50;;;;;;;9.30;5.45;;;;;;;23.50;46.28;94838.66;4173668;28;20148;-80
2023/08/15 05:00:52;;;;;;;9.20;5.28;;;;;;;23.49;46.14;94829.03;4177170;28;20131;-78
2023/08/15 05:02:54;;;;;;;10.90;5.15;;;;;;;23.47;45.97;94831.13;4174044;28;20145;-80
2023/08/15 05:04:56;;;;;;;11.55;6.10;;;;;;;23.46;45.86;94840.19;4161617;28;20190;-80
2023/08/15 05:07:01;;;;;;;10.07;5.30;;;;;;;23.47;45.88;94833.81;4168808;28;20053;-82
2023/08/15 05:09:03;;;;;;;6.78;4.97;;;;;;;23.46;46.08;94837.50;4174174;28;20056;-80
2023/08/15 05:11:04;;;;;;;8.63;4.82;;;;;;;23.47;45.67;94839.97;4176146;28;20465;-81
2023/08/15 05:13:06;;;;;;;10.30;4.97;;;;;;;23.51;46.07;94850.97;4169597;28;20049;-79
2023/08/15 05:15:09;;;;;;;8.57;4.20;;;;;;;23.52;46.01;94847.25;4173208;28;20069;-81
2023/08/15 05:17:11;;;;;;;9.27;6.03;;;;;;;23.51;45.88;94854.47;4163600;28;20100;-80
2023/08/15 05:19:12;;;;;;;8.60;5.07;;;;;;;23.52;45.68;94847.25;4162147;28;20140;-80
2023/08/15 05:21:14;;;;;;;12.23;5.45;;;;;;;23.40;45.25;94847.28;4171934;28;20223;-78
2023/08/15 05:23:17;;;;;;;11.70;5.82;;;;;;;23.33;45.66;94854.63;4160296;28;20105;-79
2023/08/15 05:25:20;;;;;;;9.65;4.38;;;;;;;23.31;46.37;94852.16;4168130;28;20107;-81
2023/08/15 05:27:22;;;;;;;8.18;5.18;;;;;;;23.34;46.53;94855.41;4160881;28;20053;-79
2023/08/15 05:29:24;;;;;;;6.93;5.10;;;;;;;23.35;46.29;94863.22;4162181;28;20061;-79
2023/08/15 05:31:27;;;;;;;9.95;5.07;;;;;;;23.37;46.62;94860.31;4166676;28;20052;-80
2023/08/15 05:33:29;;;;;;;8.63;4.93;;;;;;;23.28;46.59;94855.31;4175338;28;20495;-82
2023/08/15 05:35:31;;;;;;;12.00;5.50;;;;;;;23.31;46.71;94860.19;4177888;28;20512;-83
2023/08/15 05:37:33;;;;;;;9.85;5.30;;;;;;;23.31;47.10;94859.38;4175012;28;20045;-76
2023/08/15 05:39:36;;;;;;;9.30;5.45;;;;;;;23.38;47.08;94853.91;4174647;28;20092;-78
2023/08/15 05:41:40;;;;;;;10.93;5.30;;;;;;;23.40;47.20;94849.13;4175254;28;20479;-78
2023/08/15 05:43:42;;;;;;;12.65;5.93;;;;;;;23.42;46.93;94847.03;4173184;28;20117;-79
2023/08/15 05:45:48;;;;;;;10.23;5.22;;;;;;;23.43;47.15;94852.16;4169930;28;20183;-82
2023/08/15 05:47:50;;;;;;;8.98;5.18;;;;;;;23.43;47.29;94854.84;4171524;28;20059;-79
2023/08/15 05:49:52;;;;;;;13.43;5.75;;;;;;;23.48;47.05;94859.47;4179326;28;20106;-82
2023/08/15 05:51:54;;;;;;;10.68;4.93;;;;;;;23.46;47.34;94848.19;4169823;28;20045;-84
2023/08/15 05:53:56;;;;;;;15.23;5.60;;;;;;;23.47;47.12;94853.31;4171608;28;20049;-85
2023/08/15 05:55:58;;;;;;;7.70;5.32;;;;;;;23.46;47.15;94857.03;4170777;28;20063;-82
2023/08/15 05:57:59;;;;;;;12.93;5.38;;;;;;;23.45;47.52;94857.28;4178555;28;20084;-84
2023/08/15 06:00:03;;;;;;;11.40;5.43;;;;;;;23.42;47.54;94855.88;4172348;28;20208;-83
2023/08/15 06:02:06;;;;;;;9.18;5.28;;;;;;;23.43;46.98;94862.06;4173572;28;20063;-83
2023/08/15 06:04:08;;;;;;;11.38;5.43;;;;;;;23.37;47.13;94853.09;4166473;28;20491;-83
2023/08/15 06:06:10;;;;;;;16.75;5.60;;;;;;;23.36;47.42;94859.50;4171754;28;20136;-86
2023/08/15 06:08:11;;;;;;;9.48;4.82;;;;;;;23.34;47.35;94850.06;4184213;28;20087;-84
2023/08/15 06:10:14;;;;;;;8.73;5.28;;;;;;;23.29;47.84;94854.25;4162441;28;20141;-84
2023/08/15 06:12:16;;;;;;;16.08;5.40;;;;;;;23.29;47.81;94854.25;4166570;28;20081;-81
2023/08/15 06:14:19;;;;;;;8.38;5.20;;;;;;;23.25;47.91;94855.81;4164671;28;20056;-80
2023/08/15 06:16:21;;;;;;;12.40;5.47;;;;;;;23.26;48.14;94861.97;4170469;28;20120;-79
2023/08/15 06:18:24;;;;;;;11.70;5.22;;;;;;;23.23;48.03;94855.22;4176687;28;20097;-81
2023/08/15 06:20:31;;;;;;;10.98;5.10;;;;;;;23.18;48.37;94860.44;4177165;28;20052;-87
2023/08/15 06:22:33;;;;;;;13.45;4.82;;;;;;;23.17;48.40;94858.84;4174880;28;20048;-82
2023/08/15 06:24:36;;;;;;;9.68;4.95;;;;;;;23.19;48.48;94862.09;4170325;28;20037;-82
2023/08/15 06:26:39;;;;;;;8.52;5.30;;;;;;;23.21;48.32;94865.34;4167829;28;20346;-86
2023/08/15 06:28:41;;;;;;;6.90;4.53;;;;;;;23.23;48.27;94871.25;4167574;28;20069;-84
2023/08/15 06:30:43;;;;;;;8.00;5.20;;;;;;;23.17;48.61;94864.19;4168320;28;20455;-83
2023/08/15 06:32:45;;;;;;;8.73;5.20;;;;;;;23.14;48.39;94864.63;4176266;28;20053;-83
2023/08/15 06:34:47;;;;;;;11.80;5.25;;;;;;;22.90;49.15;94869.13;4178290;28;20077;-83
2023/08/15 06:36:49;;;;;;;11.07;4.85;;;;;;;22.83;49.26;94877.25;4162049;28;20110;-81
2023/08/15 06:38:51;;;;;;;14.50;5.80;;;;;;;22.65;49.65;94870.16;4176692;28;20063;-85
2023/08/15 06:40:53;;;;;;;14.60;5.40;;;;;;;22.74;49.65;94878.66;4172729;28;20056;-80
2023/08/15 06:42:55;;;;;;;8.45;4.65;;;;;;;22.73;49.77;94881.53;4181334;28;20064;-78
2023/08/15 06:45:11;;;;;;;18.35;5.93;;;;;;;22.75;49.82;94869.56;4168136;28;20461;-82
2023/08/15 06:47:12;;;;;;;47.97;8.98;;;;;;;22.79;49.93;94869.94;4179457;28;20045;-83
2023/08/15 06:49:14;;;;;;;13.18;5.93;;;;;;;22.82;49.93;94866.78;4167254;28;20046;-84
2023/08/15 06:51:16;;;;;;;11.38;5.55;;;;;;;22.86;49.82;94881.31;4169409;28;20045;-84
2023/08/15 06:53:19;;;;;;;11.60;5.45;;;;;;;22.89;49.75;94876.34;4172317;28;20049;-85
2023/08/15 06:55:23;;;;;;;10.18;4.97;;;;;;;22.93;49.98;94882.03;4179968;28;20053;-83
2023/08/15 06:57:25;;;;;;;14.35;6.10;;;;;;;22.96;49.93;94883.44;4175537;28;20131;-84
2023/08/15 06:59:28;;;;;;;12.15;5.40;;;;;;;22.96;49.59;94884.22;4173437;28;20056;-81
2023/08/15 07:01:30;;;;;;;11.00;5.93;;;;;;;22.90;50.32;94883.28;4168849;28;20107;-83
2023/08/15 07:03:33;;;;;;;11.40;5.65;;;;;;;22.85;50.34;94885.84;4171338;28;20073;-81
2023/08/15 07:05:35;;;;;;;9.80;5.22;;;;;;;22.89;50.54;94889.69;4175026;28;20064;-82
2023/08/15 07:07:37;;;;;;;10.02;5.28;;;;;;;22.93;50.02;94892.72;4163409;28;20053;-81
2023/08/15 07:09:39;;;;;;;14.68;5.47;;;;;;;22.89;50.21;94889.69;4170438;28;20183;-84
2023/08/15 07:11:41;;;;;;;10.50;5.47;;;;;;;22.93;50.49;94891.88;4167345;28;20045;-81
2023/08/15 07:13:43;;;;;;;13.43;6.03;;;;;;;22.84;50.73;94878.06;4165344;28;20393;-82
2023/08/15 07:15:45;;;;;;;11.73;5.78;;;;;;;22.88;50.54;94884.56;4170109;28;20073;-83
2023/08/15 07:17:47;;;;;;;9.32;4.80;;;;;;;22.95;50.66;94890.63;4151946;28;20132;-85
2023/08/15 07:19:51;;;;;;;8.05;4.70;;;;;;;23.03;50.49;94895.66;4171190;28;20095;-83
2023/08/15 07:21:53;;;;;;;9.32;5.35;;;;;;;23.08;50.34;94892.28;4170609;28;20136;-81
2023/08/15 07:23:55;;;;;;;7.10;5.50;;;;;;;22.95;50.62;94889.81;4170975;28;20549;-82
2023/08/15 07:25:57;;;;;;;9.80;5.60;;;;;;;22.90;50.86;94890.50;4174343;28;20057;-80
2023/08/15 07:27:59;;;;;;;8.68;5.38;;;;;;;22.72;50.73;94888.75;4187503;28;20073;-84
2023/08/15 07:30:00;;;;;;;8.95;5.25;;;;;;;22.56;51.40;94892.06;4182062;28;20068;-82
2023/08/15 07:32:02;;;;;;;15.57;5.60;;;;;;;22.53;51.84;94888.00;4176340;28;20152;-83
2023/08/15 07:34:05;;;;;;;12.75;5.65;;;;;;;22.53;51.84;94885.34;4170945;28;20041;-83
2023/08/15 07:36:07;;;;;;;10.43;5.13;;;;;;;22.62;51.50;94893.81;4175587;28;20057;-81
2023/08/15 07:38:09;;;;;;;11.30;5.72;;;;;;;22.69;51.15;94894.53;4176685;28;20099;-86
2023/08/15 07:40:19;;;;;;;7.70;5.10;;;;;;;22.72;51.49;94886.06;4166879;28;20140;-80
2023/08/15 07:42:20;;;;;;;7.88;5.70;;;;;;;22.77;51.11;94882.72;4171852;28;20045;-82
2023/08/15 07:44:25;;;;;;;13.85;5.75;;;;;;;22.83;50.66;94887.13;4175614;28;20080;-82
2023/08/15 07:46:27;;;;;;;7.93;5.20;;;;;;;22.79;50.70;94886.78;4177824;28;20064;-81
2023/08/15 07:48:29;;;;;;;10.32;5.50;;;;;;;22.82;50.37;94891.66;4172627;28;20350;-81
2023/08/15 07:50:31;;;;;;;13.00;6.15;;;;;;;22.88;50.80;94892.59;4175919;28;20139;-83
2023/08/15 07:52:33;;;;;;;9.48;5.65;;;;;;;22.87;50.39;94881.09;4175829;28;20049;-82
2023/08/15 07:54:35;;;;;;;12.45;5.65;;;;;;;22.85;50.33;94890.38;4178225;28;20213;-81
2023/08/15 07:56:37;;;;;;;12.50;6.28;;;;;;;22.61;50.32;94885.00;4178645;28;20044;-81
2023/08/15 07:58:40;;;;;;;10.93;6.57;;;;;;;22.53;50.88;94888.00;4171599;28;20052;-82
2023/08/15 08:00:42;;;;;;;18.52;6.88;;;;;;;22.33;51.74;94890.97;4175880;28;20048;-85
2023/08/15 08:02:45;;;;;;;18.80;6.28;;;;;;;22.17;52.13;94888.91;4179561;28;20055;-80
2023/08/15 08:04:50;;;;;;;15.55;6.88;;;;;;;21.94;53.25;94885.13;4178687;28;20041;-81
2023/08/15 08:06:52;;;;;;;11.30;6.07;;;;;;;21.64;54.36;94888.56;4172988;28;20515;-80
2023/08/15 08:08:54;;;;;;;10.32;6.60;;;;;;;21.63;54.49;94880.78;4178302;28;20373;-83
2023/08/15 08:10:56;;;;;;;9.63;6.43;;;;;;;21.64;54.59;94880.56;4171284;28;20068;-82
2023/08/15 08:13:01;;;;;;;13.27;8.27;;;;;;;21.83;54.32;94880.53;4172869;28;20186;-83
2023/08/15 08:15:03;;;;;;;11.18;7.47;;;;;;;21.97;54.11;94879.31;4175317;28;20111;-81
2023/08/15 08:17:05;;;;;;;10.45;7.00;;;;;;;21.88;53.79;94891.34;4178230;28;20112;-82
2023/08/15 08:19:09;;;;;;;8.65;5.45;;;;;;;21.72;53.94;94894.63;4179582;28;20053;-83
2023/08/15 08:21:11;;;;;;;10.15;5.97;;;;;;;21.66;54.67;94902.47;4179754;28;20049;-82
2023/08/15 08:23:13;;;;;;;10.18;5.68;;;;;;;21.67;55.20;94896.09;4182192;28;20132;-81
2023/08/15 08:25:21;;;;;;;10.13;5.63;;;;;;;21.75;55.57;94899.53;4187383;28;20068;-85
2023/08/15 08:27:23;;;;;;;11.35;5.95;;;;;;;21.87;55.58;94892.38;4176028;28;20046;-82
2023/08/15 08:29:26;;;;;;;8.82;5.18;;;;;;;22.04;54.70;94888.03;4180944;28;20064;-80
2023/08/15 08:31:28;;;;;;;6.50;5.13;;;;;;;22.11;54.15;94890.63;4178604;28;20045;-83
2023/08/15 08:33:29;;;;;;;8.70;5.68;;;;;;;22.10;53.73;94894.34;4172607;28;20113;-85
2023/08/15 08:35:31;;;;;;;13.55;5.60;;;;;;;22.11;54.15;94895.16;4180633;28;20041;-84
2023/08/15 08:37:33;;;;;;;9.95;6.07;;;;;;;22.21;54.37;94879.41;4173067;28;20049;-83
2023/08/15 08:39:36;;;;;;;10.82;5.47;;;;;;;22.28;54.43;94886.34;4168510;28;20503;-80
2023/08/15 08:41:39;;;;;;;11.57;6.78;;;;;;;22.40;53.80;94878.34;4173626;28;20115;-82
2023/08/15 08:43:41;;;;;;;;;;;;;;;22.52;54.18;94886.41;4164422;28;20060;-81
2023/08/15 08:45:51;;;;;;;11.20;5.97;;;;;;;22.63;54.02;94876.78;4172098;28;19928;-83
2023/08/15 08:47:54;;;;;;;9.95;6.25;;;;;;;22.74;53.34;94873.31;4177876;28;20076;-78
2023/08/15 08:49:57;;;;;;;10.13;6.03;;;;;;;22.86;53.38;94876.78;4180643;28;20054;-79
2023/08/15 08:51:59;;;;;;;8.53;6.20;;;;;;;22.97;53.54;94875.16;4183305;28;20045;-79
2023/08/15 08:54:01;;;;;;;7.97;5.68;;;;;;;23.12;53.31;94872.06;4193218;28;20298;-81
2023/08/15 08:56:04;;;;;;;8.30;5.28;;;;;;;23.22;53.60;94869.63;4187957;28;20112;-80
2023/08/15 08:58:10;;;;;;;9.35;5.57;;;;;;;23.27;53.54;94859.06;4175287;28;20106;-82
2023/08/15 09:00:13;;;;;;;14.98;5.70;;;;;;;23.35;52.29;94857.88;4194180;28;20177;-80
2023/08/15 09:02:19;;;;;;;7.85;5.13;;;;;;;23.39;51.89;94868.91;4187065;28;20045;-81
2023/08/15 09:04:21;;;;;;;11.43;5.40;;;;;;;23.48;52.53;94865.63;4184132;28;20057;-79
2023/08/15 09:06:26;;;;;;;10.80;7.57;;;;;;;23.52;52.45;94860.63;4173796;28;20045;-78
2023/08/15 09:08:27;;;;;;;8.77;6.47;;;;;;;23.58;51.48;94867.72;4184203;28;20061;-81
2023/08/15 09:10:29;;;;;;;12.25;7.07;;;;;;;23.58;50.91;94867.72;4190558;28;20045;-80
2023/08/15 09:12:36;;;;;;;7.95;6.07;;;;;;;23.57;50.62;94868.75;4192221;28;20049;-81
2023/08/15 09:14:41;;;;;;;9.85;6.13;;;;;;;23.50;50.23;94865.41;4192196;28;20045;-83
2023/08/15 09:16:48;;;;;;;9.85;5.60;;;;;;;23.44;50.61;94861.00;4182034;28;20055;-82
2023/08/15 09:18:50;;;;;;;21.60;10.63;;;;;;;23.47;50.67;94858.66;4149325;28;20410;-82
2023/08/15 09:20:52;;;;;;;15.52;10.35;;;;;;;23.50;51.22;94863.53;4177767;28;20496;-86
2023/08/15 09:23:01;;;;;;;11.27;6.32;;;;;;;23.52;50.98;94857.97;4176747;28;20056;-81
2023/08/15 09:25:06;;;;;;;12.40;6.25;;;;;;;23.50;50.50;94860.06;4172446;28;20119;-85
2023/08/15 09:27:09;;;;;;;13.57;5.40;;;;;;;23.49;50.60;94861.91;4172356;28;20174;-83
2023/08/15 09:29:12;;;;;;;10.00;5.72;;;;;;;23.50;50.47;94860.88;4177939;28;20500;-81
2023/08/15 09:31:14;;;;;;;8.07;5.53;;;;;;;23.55;51.30;94852.13;4173373;28;20053;-80
2023/08/15 09:33:16;;;;;;;11.50;6.35;;;;;;;23.58;51.15;94858.88;4171981;28;20128;-80
2023/08/15 09:35:18;;;;;;;10.15;5.95;;;;;;;23.61;50.88;94861.88;4174294;28;20087;-80